Time;durP1;ratioP1;P1;durP2;ratioP2;P2;SDS_P1;SDS_P2;PMS_P1;PMS_P2;Temp;Humidity;BMP_temperature;BMP_pressure;BME280_temperature;BME280_humidity;BME280_pressure;Samples;Min_cycle;Max_cycle;Signal;HPM_P1;HPM_P2
2023/06/25 00:01:31;;;;;;;10.68;7.05;;;23.70;99.20;;;;;;7397594;19;20406;-73
2023/06/25 00:03:56;;;;;;;11.45;7.45;;;23.70;98.80;;;;;;7378309;19;19990;-73
2023/06/25 00:06:22;;;;;;;10.38;5.90;;;23.70;98.30;;;;;;7396751;19;19935;-72
2023/06/25 00:08:49;;;;;;;8.75;5.82;;;23.70;97.40;;;;;;7402033;19;20338;-73
2023/06/25 00:11:15;;;;;;;9.95;5.82;;;23.70;96.90;;;;;;7401246;19;19970;-74
2023/06/25 00:13:41;;;;;;;7.57;5.47;;;23.70;96.70;;;;;;7400104;19;19906;-72
2023/06/25 00:16:07;;;;;;;10.48;5.90;;;23.70;96.30;;;;;;7398680;19;19918;-73
2023/06/25 00:18:34;;;;;;;11.35;6.13;;;23.70;95.30;;;;;;7403431;19;20357;-72
2023/06/25 00:21:01;;;;;;;8.30;5.43;;;23.70;95.10;;;;;;7404554;19;19935;-72
2023/06/25 00:23:27;;;;;;;9.52;6.05;;;23.70;95.00;;;;;;7400550;19;19975;-73
2023/06/25 00:25:53;;;;;;;8.07;5.25;;;23.70;94.80;;;;;;7400758;19;19939;-72
2023/06/25 00:28:19;;;;;;;10.10;4.82;;;23.70;93.70;;;;;;7365270;19;19925;-74
2023/06/25 00:30:45;;;;;;;8.60;4.60;;;23.80;92.10;;;;;;7401620;19;20285;-72
2023/06/25 00:33:10;;;;;;;9.65;5.07;;;23.90;92.70;;;;;;7399659;19;19927;-73
2023/06/25 00:35:55;;;;;;;9.02;5.32;;;23.90;92.90;;;;;;7400778;19;19922;-72
2023/06/25 00:38:21;;;;;;;7.38;4.45;;;23.90;90.70;;;;;;7398067;19;20400;-72
2023/06/25 00:40:47;;;;;;;7.07;4.72;;;24.00;83.10;;;;;;7399038;19;19927;-72
2023/06/25 00:43:15;;;;;;;8.77;5.35;;;24.00;81.70;;;;;;7396349;19;19980;-74
2023/06/25 00:45:43;;;;;;;7.50;4.80;;;24.10;82.60;;;;;;7399030;19;19923;-73
2023/06/25 00:48:09;;;;;;;7.45;5.20;;;24.20;84.70;;;;;;7399629;19;19937;-73
2023/06/25 00:50:35;;;;;;;8.80;5.85;;;24.10;85.80;;;;;;7398995;19;19930;-73
2023/06/25 00:53:02;;;;;;;8.75;6.10;;;24.10;88.40;;;;;;7345630;19;19922;-73
2023/06/25 00:55:28;;;;;;;10.18;6.03;;;24.00;90.40;;;;;;7397131;19;19919;-73
2023/06/25 00:57:56;;;;;;;11.38;6.03;;;24.10;91.00;;;;;;7400322;19;19926;-74
2023/06/25 01:00:24;;;;;;;11.38;7.00;;;24.10;91.70;;;;;;7399350;19;19963;-73
2023/06/25 01:03:00;;;;;;;10.98;5.78;;;24.20;92.40;;;;;;7399349;19;19978;-72
2023/06/25 01:05:25;;;;;;;10.05;6.35;;;24.10;92.50;;;;;;7396017;19;19918;-72
2023/06/25 01:07:53;;;;;;;9.88;6.03;;;24.00;92.70;;;;;;7397431;19;19917;-74
2023/06/25 01:10:19;;;;;;;9.27;6.05;;;24.00;91.80;;;;;;7398435;19;20307;-73
2023/06/25 01:12:45;;;;;;;10.93;6.00;;;24.00;91.20;;;;;;7397979;19;19934;-73
2023/06/25 01:15:12;;;;;;;9.55;5.95;;;23.90;90.50;;;;;;7400343;19;19944;-73
2023/06/25 01:17:39;;;;;;;;;;;23.90;89.40;;;;;;7388496;19;19925;-73
2023/06/25 01:20:08;;;;;;;7.65;5.13;;;23.90;88.70;;;;;;7402406;19;19930;-74
2023/06/25 01:22:34;;;;;;;7.75;5.40;;;23.90;88.40;;;;;;7405958;19;19934;-72
2023/06/25 01:25:00;;;;;;;8.25;5.40;;;23.90;87.60;;;;;;7407551;19;19957;-73
2023/06/25 01:27:26;;;;;;;9.15;5.43;;;23.80;87.60;;;;;;7402804;19;19918;-73
2023/06/25 01:29:53;;;;;;;8.80;5.70;;;23.80;87.80;;;;;;7404401;19;19959;-73
2023/06/25 01:32:19;;;;;;;7.47;4.75;;;23.80;88.60;;;;;;7370767;19;19926;-72
2023/06/25 01:34:45;;;;;;;9.05;6.55;;;23.80;90.00;;;;;;7403985;19;19918;-73
2023/06/25 01:37:17;;;;;;;10.15;6.30;;;23.80;90.50;;;;;;7404893;19;19921;-73
2023/06/25 01:39:49;;;;;;;8.30;5.57;;;23.80;90.00;;;;;;7406101;19;19996;-72
2023/06/25 01:42:15;;;;;;;10.45;5.55;;;23.80;89.50;;;;;;7400168;19;19926;-73
2023/06/25 01:44:41;;;;;;;9.40;5.25;;;23.80;88.90;;;;;;7402382;19;19926;-72
2023/06/25 01:47:07;;;;;;;9.63;5.85;;;23.70;88.60;;;;;;7401509;19;19935;-72
2023/06/25 01:49:32;;;;;;;8.65;5.50;;;23.70;88.00;;;;;;7405909;19;19915;-73
2023/06/25 01:51:59;;;;;;;9.00;6.28;;;23.70;87.80;;;;;;7402525;19;19934;-72
2023/06/25 01:54:25;;;;;;;7.93;5.15;;;23.70;88.00;;;;;;7400779;19;20387;-72
2023/06/25 01:56:51;;;;;;;8.00;5.25;;;23.70;86.90;;;;;;7405465;19;19919;-72
2023/06/25 01:59:18;;;;;;;8.40;5.75;;;23.60;86.90;;;;;;7374149;19;19914;-73
2023/06/25 02:01:44;;;;;;;9.10;5.43;;;23.60;87.10;;;;;;7404157;19;19945;-74
2023/06/25 02:04:10;;;;;;;8.90;4.82;;;23.60;87.50;;;;;;7406534;19;19947;-73
2023/06/25 02:06:35;;;;;;;10.35;5.35;;;23.50;88.30;;;;;;7405371;19;19922;-73
2023/06/25 02:09:02;;;;;;;8.82;5.38;;;23.50;87.80;;;;;;7404782;19;19925;-73
2023/06/25 02:11:28;;;;;;;7.63;4.97;;;23.50;86.70;;;;;;7406105;19;19907;-73
2023/06/25 02:13:54;;;;;;;8.90;6.03;;;23.60;86.40;;;;;;7406448;19;19922;-73
2023/06/25 02:16:20;;;;;;;7.38;5.25;;;23.60;86.10;;;;;;7402550;19;20329;-73
2023/06/25 02:18:46;;;;;;;7.75;5.72;;;23.50;85.60;;;;;;7403041;19;19926;-73
2023/06/25 02:21:12;;;;;;;6.90;5.18;;;23.50;84.80;;;;;;7404304;19;19984;-73
2023/06/25 02:23:37;;;;;;;8.38;5.30;;;23.50;84.10;;;;;;7404894;19;19918;-72
2023/06/25 02:26:03;;;;;;;10.70;5.30;;;23.50;83.60;;;;;;7402411;19;20269;-72
2023/06/25 02:28:29;;;;;;;7.47;5.45;;;23.50;83.50;;;;;;7402569;19;19914;-74
2023/06/25 02:30:55;;;;;;;7.88;5.07;;;23.50;83.50;;;;;;7405621;19;19918;-73
2023/06/25 02:33:20;;;;;;;7.68;4.65;;;23.60;83.40;;;;;;7400708;19;19914;-72
2023/06/25 02:35:46;;;;;;;8.40;5.32;;;23.60;83.20;;;;;;7402643;19;20272;-74
2023/06/25 02:38:12;;;;;;;8.38;5.15;;;23.50;81.40;;;;;;7397832;19;19926;-73
2023/06/25 02:40:38;;;;;;;8.05;4.65;;;23.60;80.80;;;;;;7403915;19;19941;-73
2023/06/25 02:43:04;;;;;;;9.90;5.45;;;23.50;80.80;;;;;;7400316;19;19918;-73
2023/06/25 02:45:29;;;;;;;7.35;4.90;;;23.50;80.70;;;;;;7404896;19;20038;-74
2023/06/25 02:47:55;;;;;;;7.35;4.38;;;23.50;81.30;;;;;;7401537;19;20261;-73
2023/06/25 02:50:21;;;;;;;7.13;4.72;;;23.50;81.20;;;;;;7402051;19;20263;-73
2023/06/25 02:52:47;;;;;;;8.88;5.25;;;23.40;81.60;;;;;;7402236;19;20457;-74
2023/06/25 02:55:13;;;;;;;8.73;5.63;;;23.40;83.30;;;;;;7400562;19;19927;-73
2023/06/25 02:57:39;;;;;;;8.88;5.55;;;23.40;82.80;;;;;;7400490;19;19911;-73
2023/06/25 03:00:06;;;;;;;8.13;5.13;;;23.40;83.60;;;;;;7401098;19;19941;-73
2023/06/25 03:02:31;;;;;;;;;;;23.40;83.00;;;;;;7380972;19;19919;-74
2023/06/25 03:04:57;;;;;;;9.45;5.53;;;23.40;82.70;;;;;;7399208;19;20275;-74
2023/06/25 03:07:23;;;;;;;8.80;5.40;;;23.40;82.80;;;;;;7399267;19;19951;-73
2023/06/25 03:09:49;;;;;;;7.32;5.35;;;23.40;83.00;;;;;;7401672;19;19914;-73
2023/06/25 03:12:14;;;;;;;9.30;5.38;;;23.40;82.60;;;;;;7395277;19;19914;-72
2023/06/25 03:14:41;;;;;;;10.23;6.72;;;23.40;82.40;;;;;;7399849;19;19917;-73
2023/06/25 03:17:07;;;;;;;8.35;4.72;;;23.40;85.80;;;;;;7398897;19;20322;-73
2023/06/25 03:19:33;;;;;;;6.82;4.55;;;23.40;84.60;;;;;;7403292;19;19943;-72
2023/06/25 03:21:59;;;;;;;7.70;5.28;;;23.40;84.70;;;;;;7398687;19;20266;-74
2023/06/25 03:24:25;;;;;;;7.35;5.70;;;23.50;85.60;;;;;;7400047;19;19919;-73
2023/06/25 03:26:50;;;;;;;9.48;5.82;;;23.40;85.60;;;;;;7402224;19;19978;-74
2023/06/25 03:29:16;;;;;;;9.45;5.60;;;23.40;86.10;;;;;;7399241;19;20255;-73
2023/06/25 03:31:43;;;;;;;8.55;5.97;;;23.40;87.70;;;;;;7401666;19;19943;-73
2023/06/25 03:34:08;;;;;;;8.25;5.53;;;23.40;87.10;;;;;;7400528;19;19919;-74
2023/06/25 03:36:34;;;;;;;7.88;5.00;;;23.40;86.80;;;;;;7401572;19;20291;-73
2023/06/25 03:39:00;;;;;;;8.40;5.00;;;23.30;86.30;;;;;;7398102;19;20258;-73
2023/06/25 03:41:26;;;;;;;7.65;5.40;;;23.40;86.90;;;;;;7400627;19;19914;-74
2023/06/25 03:43:52;;;;;;;9.00;5.68;;;23.30;87.10;;;;;;7399959;19;19921;-73
2023/06/25 03:46:17;;;;;;;9.10;6.05;;;23.30;87.60;;;;;;7399333;19;19919;-73
2023/06/25 03:48:44;;;;;;;10.55;6.20;;;23.40;88.10;;;;;;7400673;19;19935;-74
2023/06/25 03:51:10;;;;;;;;;;;23.30;88.60;;;;;;7401793;19;20640;-73
2023/06/25 03:53:38;;;;;;;9.10;5.78;;;23.30;88.60;;;;;;7397277;19;19911;-73
2023/06/25 03:56:04;;;;;;;9.20;6.38;;;23.30;89.40;;;;;;7398835;19;19918;-73
2023/06/25 03:58:30;;;;;;;9.85;6.57;;;23.30;90.30;;;;;;7400788;19;19921;-73
2023/06/25 04:00:56;;;;;;;11.80;6.88;;;23.20;91.60;;;;;;7398615;19;19999;-74
2023/06/25 04:03:22;;;;;;;12.70;6.45;;;23.30;92.30;;;;;;7394416;19;20416;-73
2023/06/25 04:05:48;;;;;;;11.63;6.07;;;23.20;92.30;;;;;;7400739;19;19943;-73
2023/06/25 04:08:14;;;;;;;10.90;5.90;;;23.30;92.00;;;;;;7365995;19;19952;-74
2023/06/25 04:10:42;;;;;;;9.95;6.18;;;23.30;91.70;;;;;;7401963;19;19926;-73
2023/06/25 04:13:08;;;;;;;11.52;6.47;;;23.20;91.60;;;;;;7398957;19;19914;-73
2023/06/25 04:15:34;;;;;;;10.07;5.75;;;23.20;91.60;;;;;;7397983;19;19925;-74
2023/06/25 04:18:00;;;;;;;10.93;6.07;;;23.20;91.20;;;;;;7398624;19;19910;-74
2023/06/25 04:20:27;;;;;;;10.35;6.40;;;23.20;90.90;;;;;;7402784;19;20552;-73
2023/06/25 04:22:54;;;;;;;11.50;6.50;;;23.30;90.90;;;;;;7399247;19;19918;-73
2023/06/25 04:25:20;;;;;;;10.63;6.53;;;23.30;90.70;;;;;;7398370;19;20319;-74
2023/06/25 04:27:47;;;;;;;10.40;6.40;;;23.30;90.90;;;;;;7399598;19;19922;-73
2023/06/25 04:30:13;;;;;;;9.88;5.88;;;23.40;90.70;;;;;;7400081;19;19915;-74
2023/06/25 04:32:39;;;;;;;11.27;5.75;;;23.40;90.20;;;;;;7397510;19;19911;-74
2023/06/25 04:35:05;;;;;;;9.48;5.32;;;23.30;89.80;;;;;;7397867;19;20776;-73
2023/06/25 04:37:31;;;;;;;8.15;5.55;;;23.40;89.30;;;;;;7401076;19;19926;-73
2023/06/25 04:39:56;;;;;;;8.93;5.45;;;23.40;89.10;;;;;;7396500;19;19914;-74
2023/06/25 04:42:22;;;;;;;10.07;6.10;;;23.40;88.30;;;;;;7397620;19;19942;-74
2023/06/25 04:44:49;;;;;;;11.57;5.68;;;23.40;89.20;;;;;;7398514;19;19914;-74
2023/06/25 04:47:15;;;;;;;10.02;6.07;;;23.40;89.90;;;;;;7398152;19;19922;-74
2023/06/25 04:49:41;;;;;;;10.00;5.50;;;23.40;89.70;;;;;;7399154;19;20371;-74
2023/06/25 04:52:07;;;;;;;11.63;5.88;;;23.50;88.80;;;;;;7401917;19;19923;-73
2023/06/25 04:54:32;;;;;;;9.07;6.03;;;23.50;89.50;;;;;;7404692;19;19923;-73
2023/06/25 04:56:58;;;;;;;8.68;4.47;;;23.50;89.50;;;;;;7406947;19;20452;-74
2023/06/25 04:59:24;;;;;;;11.15;6.13;;;23.50;88.80;;;;;;7403104;19;19919;-73
2023/06/25 05:01:50;;;;;;;9.32;5.90;;;23.50;89.10;;;;;;7405836;19;20263;-74
2023/06/25 05:04:16;;;;;;;11.25;6.70;;;23.60;89.50;;;;;;7402146;19;19911;-73
2023/06/25 05:06:42;;;;;;;10.25;6.35;;;23.70;89.30;;;;;;7407373;19;20235;-73
2023/06/25 05:09:07;;;;;;;9.93;6.25;;;23.70;89.40;;;;;;7403029;19;19923;-74
2023/06/25 05:11:33;;;;;;;10.32;6.20;;;23.70;89.40;;;;;;7403582;19;19926;-74
2023/06/25 05:13:59;;;;;;;9.45;5.50;;;23.70;88.50;;;;;;7405794;19;19919;-73
2023/06/25 05:16:24;;;;;;;10.13;6.03;;;23.80;87.80;;;;;;7403934;19;19918;-74
2023/06/25 05:18:50;;;;;;;10.65;5.53;;;23.90;87.10;;;;;;7402629;19;19923;-74
2023/06/25 05:21:16;;;;;;;9.50;7.05;;;23.90;86.80;;;;;;7402110;19;20351;-74
2023/06/25 05:23:57;;;;;;;9.32;5.68;;;24.00;86.50;;;;;;7402827;19;20265;-73
2023/06/25 05:26:23;;;;;;;12.45;6.70;;;24.00;86.10;;;;;;7401533;19;19947;-73
2023/06/25 05:28:49;;;;;;;8.93;5.75;;;24.10;85.70;;;;;;7406139;19;19927;-73
2023/06/25 05:31:15;;;;;;;9.95;6.55;;;24.10;85.20;;;;;;7400886;19;19919;-73
2023/06/25 05:33:40;;;;;;;9.73;6.47;;;24.20;85.10;;;;;;7403433;19;19915;-73
2023/06/25 05:36:06;;;;;;;10.98;6.78;;;24.30;85.10;;;;;;7402308;19;19999;-73
2023/06/25 05:38:32;;;;;;;16.63;7.57;;;24.30;86.30;;;;;;7403270;19;20478;-72
2023/06/25 05:40:57;;;;;;;13.40;8.15;;;24.40;87.70;;;;;;7403707;19;20281;-72
2023/06/25 05:43:23;;;;;;;11.90;7.18;;;24.40;88.90;;;;;;7403045;19;20288;-73
2023/06/25 05:45:49;;;;;;;14.00;8.35;;;24.50;89.00;;;;;;7403183;19;19925;-73
2023/06/25 05:48:15;;;;;;;12.98;7.65;;;24.50;88.80;;;;;;7400356;19;19950;-73
2023/06/25 05:50:40;;;;;;;16.02;8.43;;;24.60;88.90;;;;;;7403531;19;20353;-73
2023/06/25 05:53:07;;;;;;;12.30;7.70;;;24.60;89.00;;;;;;7400465;19;19999;-72
2023/06/25 05:55:33;;;;;;;12.73;8.43;;;24.70;89.40;;;;;;7404980;19;19934;-73
2023/06/25 05:57:59;;;;;;;14.27;9.27;;;24.80;90.10;;;;;;7403113;19;19915;-73
2023/06/25 06:00:26;;;;;;;17.70;9.45;;;24.80;90.50;;;;;;7400912;19;19922;-73
2023/06/25 06:02:52;;;;;;;15.55;9.75;;;24.80;90.80;;;;;;7404268;19;20790;-73
2023/06/25 06:05:18;;;;;;;15.68;9.20;;;24.90;90.70;;;;;;7401765;19;19919;-74
2023/06/25 06:07:43;;;;;;;15.45;10.10;;;24.90;90.40;;;;;;7402613;19;20008;-74
2023/06/25 06:10:10;;;;;;;12.70;8.90;;;25.00;90.70;;;;;;7400791;19;20264;-73
2023/06/25 06:12:36;;;;;;;13.48;9.55;;;25.00;90.90;;;;;;7403764;19;20246;-74
2023/06/25 06:15:02;;;;;;;14.90;10.93;;;25.00;90.80;;;;;;7380543;19;19990;-73
2023/06/25 06:17:28;;;;;;;14.57;9.52;;;25.20;90.80;;;;;;7403767;19;19915;-74
2023/06/25 06:19:53;;;;;;;15.18;9.73;;;25.10;90.60;;;;;;7399159;19;19939;-73
2023/06/25 06:22:20;;;;;;;14.75;9.45;;;25.20;90.50;;;;;;7400158;19;19921;-73
2023/06/25 06:24:46;;;;;;;13.05;8.68;;;25.30;90.20;;;;;;7401665;19;20343;-74
2023/06/25 06:27:12;;;;;;;17.42;10.10;;;25.30;89.80;;;;;;7371834;19;19939;-73
2023/06/25 06:29:37;;;;;;;14.85;9.48;;;25.40;89.40;;;;;;7403939;19;19911;-73
2023/06/25 06:32:06;;;;;;;13.45;8.75;;;25.50;88.80;;;;;;7400126;19;19910;-73
2023/06/25 06:34:32;;;;;;;13.40;9.18;;;25.60;88.10;;;;;;7404884;19;19931;-74
2023/06/25 06:36:58;;;;;;;15.23;9.63;;;25.70;87.00;;;;;;7403055;19;19907;-73
2023/06/25 06:39:23;;;;;;;17.08;10.18;;;25.70;86.60;;;;;;7403173;19;19931;-73
2023/06/25 06:41:49;;;;;;;14.02;7.47;;;25.80;86.10;;;;;;7401372;19;20385;-74
2023/06/25 06:44:17;;;;;;;14.23;8.55;;;25.80;85.70;;;;;;7401181;19;19929;-74
2023/06/25 06:46:43;;;;;;;13.45;9.48;;;25.90;85.60;;;;;;7402635;19;19929;-73
2023/06/25 06:49:10;;;;;;;13.82;9.10;;;25.80;86.90;;;;;;7401616;19;19936;-73
2023/06/25 06:51:36;;;;;;;;;;;25.80;86.80;;;;;;7403535;19;20289;-73
2023/06/25 06:54:02;;;;;;;16.42;10.50;;;25.90;86.30;;;;;;7402519;19;19914;-73
2023/06/25 06:56:28;;;;;;;14.13;9.10;;;25.80;85.70;;;;;;7401932;19;19932;-74
2023/06/25 06:58:54;;;;;;;14.38;9.43;;;25.80;85.00;;;;;;7404173;19;19951;-73
2023/06/25 07:01:20;;;;;;;13.77;9.65;;;25.90;83.70;;;;;;7397804;19;19951;-73
2023/06/25 07:03:45;;;;;;;14.63;8.55;;;25.90;83.20;;;;;;7404472;19;19946;-74
2023/06/25 07:06:11;;;;;;;12.82;9.20;;;26.00;81.80;;;;;;7400664;19;19919;-73
2023/06/25 07:08:37;;;;;;;14.18;9.05;;;26.10;81.60;;;;;;7399819;19;19914;-73
2023/06/25 07:11:03;;;;;;;14.20;8.38;;;26.20;81.10;;;;;;7401182;19;19926;-74
2023/06/25 07:13:30;;;;;;;11.93;8.57;;;26.20;80.60;;;;;;7398104;19;19922;-74
2023/06/25 07:15:55;;;;;;;11.32;7.72;;;26.20;79.40;;;;;;7400499;19;19919;-73
2023/06/25 07:18:21;;;;;;;13.88;8.18;;;26.20;78.30;;;;;;7398311;19;19934;-75
2023/06/25 07:20:47;;;;;;;14.48;8.60;;;26.30;78.50;;;;;;7399639;19;19914;-73
2023/06/25 07:23:13;;;;;;;14.88;7.65;;;26.30;78.90;;;;;;7399969;19;20442;-73
2023/06/25 07:25:38;;;;;;;12.48;8.05;;;26.50;78.30;;;;;;7403308;19;20252;-74
2023/06/25 07:28:04;;;;;;;12.15;8.32;;;26.60;78.20;;;;;;7378614;19;20014;-74
2023/06/25 07:30:30;;;;;;;14.80;9.15;;;26.60;79.50;;;;;;7401268;19;19922;-73
2023/06/25 07:32:57;;;;;;;14.93;8.93;;;26.60;79.70;;;;;;7400764;19;19929;-73
2023/06/25 07:35:23;;;;;;;10.75;7.97;;;26.70;79.40;;;;;;7400275;19;19968;-74
2023/06/25 07:37:49;;;;;;;14.85;8.75;;;26.70;79.10;;;;;;7402730;19;19914;-73
2023/06/25 07:40:14;;;;;;;12.65;8.32;;;26.60;79.40;;;;;;7399844;19;19930;-74
2023/06/25 07:42:40;;;;;;;14.00;7.93;;;26.80;78.50;;;;;;7399022;19;19915;-73
2023/06/25 07:45:07;;;;;;;11.75;7.85;;;26.90;77.60;;;;;;7398535;19;20405;-73
2023/06/25 07:47:32;;;;;;;12.15;7.78;;;27.00;77.00;;;;;;7401170;19;19922;-74
2023/06/25 07:49:58;;;;;;;11.85;7.72;;;27.00;75.70;;;;;;7400147;19;20319;-73
2023/06/25 07:52:24;;;;;;;12.05;8.20;;;26.80;74.70;;;;;;7400786;19;19918;-73
2023/06/25 07:54:49;;;;;;;9.75;6.80;;;26.90;74.20;;;;;;7399837;19;19966;-73
2023/06/25 07:57:16;;;;;;;13.77;8.15;;;27.00;74.00;;;;;;7398243;19;20543;-74
2023/06/25 07:59:42;;;;;;;12.15;7.57;;;27.00;74.00;;;;;;7401360;19;19925;-73
2023/06/25 08:02:08;;;;;;;11.02;7.45;;;27.00;72.70;;;;;;7401060;19;19978;-73
2023/06/25 08:04:35;;;;;;;12.73;8.88;;;27.10;73.80;;;;;;7402011;19;19922;-74
2023/06/25 08:07:01;;;;;;;15.85;8.80;;;27.10;74.20;;;;;;7399383;19;19922;-73
2023/06/25 08:09:27;;;;;;;14.40;8.77;;;27.20;74.20;;;;;;7401293;19;20350;-73
2023/06/25 08:11:53;;;;;;;12.77;8.45;;;27.30;73.90;;;;;;7404434;19;19918;-73
2023/06/25 08:14:18;;;;;;;10.27;7.93;;;27.40;74.30;;;;;;7401418;19;19956;-74
2023/06/25 08:16:44;;;;;;;12.35;8.65;;;27.40;72.80;;;;;;7402974;19;19925;-73
2023/06/25 08:19:10;;;;;;;13.30;8.02;;;27.60;72.10;;;;;;7399945;19;20308;-73
2023/06/25 08:21:35;;;;;;;11.57;7.53;;;27.70;71.10;;;;;;7401057;19;19914;-73
2023/06/25 08:24:01;;;;;;;12.63;7.20;;;27.80;70.30;;;;;;7401013;19;20650;-73
2023/06/25 08:26:28;;;;;;;11.65;8.65;;;27.80;70.20;;;;;;7400774;19;19952;-73
2023/06/25 08:28:53;;;;;;;12.05;8.57;;;27.70;70.30;;;;;;7371140;19;19923;-73
2023/06/25 08:31:19;;;;;;;15.40;7.85;;;27.70;70.20;;;;;;7399795;19;19978;-73
2023/06/25 08:33:45;;;;;;;11.63;8.00;;;27.80;70.10;;;;;;7401458;19;20363;-73
2023/06/25 08:36:11;;;;;;;11.43;8.02;;;27.90;69.70;;;;;;7398732;19;19922;-73
2023/06/25 08:38:37;;;;;;;14.70;8.95;;;28.00;69.00;;;;;;7401462;19;19947;-73
2023/06/25 08:41:03;;;;;;;13.77;8.88;;;27.80;69.40;;;;;;7399514;19;19919;-73
2023/06/25 08:43:29;;;;;;;12.65;9.25;;;27.80;69.80;;;;;;7398019;19;19925;-73
2023/06/25 08:45:56;;;;;;;11.73;9.23;;;28.50;69.10;;;;;;7400817;19;20343;-73
2023/06/25 08:48:23;;;;;;;12.23;7.45;;;30.20;65.20;;;;;;7398745;19;20431;-73
2023/06/25 08:50:57;;;;;;;10.63;8.90;;;30.80;61.80;;;;;;7401008;19;20540;-73
2023/06/25 08:53:28;;;;;;;10.80;8.75;;;31.90;58.90;;;;;;7401061;19;19935;-73
2023/06/25 08:55:58;;;;;;;9.27;8.25;;;32.50;56.90;;;;;;7402593;19;20426;-73
2023/06/25 08:58:24;;;;;;;11.40;8.90;;;32.30;55.90;;;;;;7398778;19;19947;-73
2023/06/25 09:00:50;;;;;;;11.02;9.15;;;32.20;56.00;;;;;;7400963;19;19919;-73
2023/06/25 09:03:16;;;;;;;10.73;9.57;;;32.70;55.10;;;;;;7399881;19;19922;-73
2023/06/25 09:05:50;;;;;;;;;;;32.50;54.80;;;;;;7404301;19;19918;-73
2023/06/25 09:08:16;;;;;;;10.35;8.48;;;31.40;56.00;;;;;;7398223;19;19981;-73
2023/06/25 09:10:41;;;;;;;11.15;8.50;;;31.40;56.30;;;;;;7402211;19;19922;-74
2023/06/25 09:13:07;;;;;;;11.02;9.82;;;32.00;55.20;;;;;;7366959;19;19950;-73
2023/06/25 09:15:33;;;;;;;12.23;9.77;;;32.80;53.60;;;;;;7400970;19;19928;-73
2023/06/25 09:17:59;;;;;;;11.43;8.60;;;32.40;53.60;;;;;;7401565;19;20250;-74
2023/06/25 09:20:25;;;;;;;10.57;9.63;;;33.20;53.10;;;;;;7399799;19;19919;-74
2023/06/25 09:22:55;;;;;;;11.20;9.73;;;34.00;51.60;;;;;;7397408;19;19914;-74
2023/06/25 09:25:26;;;;;;;11.45;10.35;;;33.80;50.90;;;;;;7396058;19;19921;-74
2023/06/25 09:27:52;;;;;;;10.73;9.52;;;34.50;50.50;;;;;;7398549;19;19935;-74
2023/06/25 09:30:22;;;;;;;11.95;9.52;;;34.10;48.80;;;;;;7397796;19;19918;-74
2023/06/25 09:32:55;;;;;;;11.55;9.20;;;33.20;49.10;;;;;;7397872;19;19925;-75
2023/06/25 09:35:25;;;;;;;11.02;9.98;;;33.50;49.50;;;;;;7398713;19;19945;-74
2023/06/25 09:37:52;;;;;;;11.43;10.25;;;33.90;49.10;;;;;;7406020;19;19986;-74
2023/06/25 09:40:19;;;;;;;10.30;9.23;;;34.70;47.80;;;;;;7404436;19;19918;-74
2023/06/25 09:42:47;;;;;;;10.77;9.13;;;34.40;47.30;;;;;;7405870;19;19926;-74
2023/06/25 09:45:17;;;;;;;10.30;9.23;;;34.90;47.20;;;;;;7404970;19;19918;-73
2023/06/25 09:47:46;;;;;;;11.57;8.85;;;35.10;46.00;;;;;;7404421;19;19955;-74
2023/06/25 09:50:37;;;;;;;9.93;8.75;;;35.10;46.20;;;;;;7403856;19;19990;-74
2023/06/25 09:53:07;;;;;;;10.07;8.85;;;35.50;45.70;;;;;;7404678;19;19941;-74
2023/06/25 09:55:36;;;;;;;10.80;8.75;;;35.50;45.30;;;;;;7403932;19;19926;-74
2023/06/25 09:58:02;;;;;;;10.95;9.10;;;36.10;45.10;;;;;;7373384;19;19918;-74
2023/06/25 10:00:29;;;;;;;9.13;8.15;;;35.90;45.20;;;;;;7404405;19;20374;-74
2023/06/25 10:02:55;;;;;;;9.65;8.55;;;35.70;45.30;;;;;;7405227;19;19918;-73
2023/06/25 10:05:21;;;;;;;10.32;8.55;;;34.90;46.40;;;;;;7406222;19;19928;-74
2023/06/25 10:07:47;;;;;;;9.82;7.95;;;35.00;47.10;;;;;;7407178;19;19938;-73
2023/06/25 10:10:20;;;;;;;11.20;8.77;;;34.90;45.80;;;;;;7403713;19;20347;-74
2023/06/25 10:12:48;;;;;;;15.18;9.00;;;33.80;47.10;;;;;;7405442;19;20346;-75
2023/06/25 10:15:14;;;;;;;9.55;8.13;;;34.00;47.80;;;;;;7402290;19;19946;-75
2023/06/25 10:17:52;;;;;;;9.43;8.02;;;32.10;49.80;;;;;;7405862;19;19927;-74
2023/06/25 10:20:32;;;;;;;9.73;8.50;;;32.70;49.30;;;;;;7404836;19;20038;-73
2023/06/25 10:23:25;;;;;;;9.55;6.97;;;32.60;49.30;;;;;;7403046;19;20334;-73
2023/06/25 10:25:53;;;;;;;8.75;6.85;;;32.80;50.50;;;;;;7401495;19;19925;-74
2023/06/25 10:28:19;;;;;;;10.13;6.68;;;34.00;48.70;;;;;;7397895;19;19915;-74
2023/06/25 10:30:49;;;;;;;8.93;6.82;;;33.70;49.20;;;;;;7402924;19;19943;-74
2023/06/25 10:33:19;;;;;;;9.32;7.30;;;33.80;49.50;;;;;;7398896;19;19909;-74
2023/06/25 10:35:55;;;;;;;8.05;7.35;;;33.60;49.80;;;;;;7400245;19;19914;-74
2023/06/25 10:38:22;;;;;;;10.77;7.15;;;33.40;50.90;;;;;;7403684;19;20026;-74
2023/06/25 10:40:47;;;;;;;10.65;7.38;;;33.10;51.50;;;;;;7404860;19;19994;-76
2023/06/25 10:43:20;;;;;;;9.65;6.82;;;33.10;51.50;;;;;;7403203;19;19931;-74
2023/06/25 10:45:53;;;;;;;8.52;6.72;;;32.10;53.10;;;;;;7402879;19;19982;-75
2023/06/25 10:48:19;;;;;;;10.05;5.38;;;31.00;55.70;;;;;;7400307;19;20408;-74
2023/06/25 10:50:46;;;;;;;8.23;6.40;;;31.20;56.00;;;;;;7402133;19;19999;-74
2023/06/25 10:53:13;;;;;;;10.15;6.93;;;31.60;55.10;;;;;;7400506;19;19949;-74
2023/06/25 10:55:44;;;;;;;11.05;7.22;;;30.90;54.00;;;;;;7400686;19;19928;-73
2023/06/25 10:58:13;;;;;;;9.18;7.13;;;31.40;55.60;;;;;;7401123;19;20340;-74
2023/06/25 11:00:39;;;;;;;8.75;6.72;;;30.90;56.30;;;;;;7402824;19;19918;-74
2023/06/25 11:03:04;;;;;;;7.60;5.82;;;30.70;54.70;;;;;;7399730;19;20712;-73
2023/06/25 11:05:42;;;;;;;7.93;6.13;;;29.70;59.00;;;;;;7403989;19;20256;-73
2023/06/25 11:08:08;;;;;;;9.13;6.40;;;30.50;59.70;;;;;;7403553;19;19922;-74
2023/06/25 11:10:36;;;;;;;8.10;6.57;;;30.50;59.60;;;;;;7404057;19;20002;-74
2023/06/25 11:13:02;;;;;;;10.18;5.78;;;30.60;59.70;;;;;;7404236;19;19922;-73
2023/06/25 11:15:33;;;;;;;10.23;7.35;;;31.00;59.30;;;;;;7403277;19;19923;-74
2023/06/25 11:17:59;;;;;;;8.10;5.75;;;31.40;58.20;;;;;;7405361;19;19922;-73
2023/06/25 11:20:26;;;;;;;7.78;6.32;;;31.60;57.10;;;;;;7402350;19;20030;-74
2023/06/25 11:22:53;;;;;;;9.95;6.10;;;31.00;58.50;;;;;;7401966;19;19915;-74
2023/06/25 11:25:22;;;;;;;8.75;6.05;;;30.20;59.70;;;;;;7399357;19;20387;-73
2023/06/25 11:27:58;;;;;;;10.40;6.25;;;30.40;58.20;;;;;;7403665;19;19914;-74
2023/06/25 11:30:27;;;;;;;10.02;6.38;;;30.50;59.20;;;;;;7369939;19;19919;-74
2023/06/25 11:32:54;;;;;;;8.40;6.22;;;31.40;58.50;;;;;;7400750;19;20395;-76
2023/06/25 11:35:24;;;;;;;11.23;5.70;;;31.30;57.20;;;;;;7399697;19;19929;-74
2023/06/25 11:37:51;;;;;;;10.52;5.60;;;31.10;56.10;;;;;;7403019;19;19918;-74
2023/06/25 11:40:22;;;;;;;8.20;6.25;;;32.10;55.20;;;;;;7399032;19;19923;-74
2023/06/25 11:42:48;;;;;;;8.52;6.63;;;31.50;56.20;;;;;;7401740;19;19983;-73
2023/06/25 11:45:18;;;;;;;8.23;6.13;;;31.20;54.80;;;;;;7377454;19;19926;-74
2023/06/25 11:47:50;;;;;;;9.73;5.45;;;31.30;54.40;;;;;;7402560;19;19943;-73
2023/06/25 11:50:23;;;;;;;8.43;5.47;;;31.70;55.70;;;;;;7400414;19;19946;-73
2023/06/25 11:52:49;;;;;;;7.32;4.97;;;32.30;53.80;;;;;;7400867;19;19914;-75
2023/06/25 11:55:16;;;;;;;7.63;5.63;;;31.40;54.70;;;;;;7400834;19;19926;-74
2023/06/25 11:57:42;;;;;;;8.25;5.88;;;31.20;54.70;;;;;;7403341;19;19918;-73
2023/06/25 12:00:08;;;;;;;;;;;31.40;55.70;;;;;;7401808;19;20046;-73
2023/06/25 12:02:34;;;;;;;9.73;5.45;;;31.60;55.00;;;;;;7401231;19;19918;-73
2023/06/25 12:04:59;;;;;;;8.88;6.53;;;31.40;52.40;;;;;;7399313;19;19925;-74
2023/06/25 12:07:25;;;;;;;;;;;31.10;54.00;;;;;;7401804;19;19923;-74
2023/06/25 12:09:51;;;;;;;8.25;5.00;;;31.60;54.10;;;;;;7401316;19;20272;-73
2023/06/25 12:12:17;;;;;;;7.68;5.65;;;30.20;55.30;;;;;;7399553;19;19922;-73
2023/06/25 12:14:44;;;;;;;;;;;30.90;54.00;;;;;;7402681;19;19921;-73
2023/06/25 12:17:11;;;;;;;6.03;4.65;;;31.60;53.80;;;;;;7401321;19;20251;-73
2023/06/25 12:19:36;;;;;;;7.15;5.97;;;31.50;53.20;;;;;;7398734;19;19994;-73
2023/06/25 12:22:02;;;;;;;;;;;30.80;53.70;;;;;;7403239;19;19914;-73
2023/06/25 12:24:28;;;;;;;10.90;6.10;;;30.90;54.20;;;;;;7398702;19;19922;-74
2023/06/25 12:26:54;;;;;;;;;;;31.50;54.40;;;;;;7405463;19;19926;-73
2023/06/25 12:29:20;;;;;;;7.70;6.57;;;31.60;52.90;;;;;;7397716;19;19919;-74
2023/06/25 12:31:46;;;;;;;;;;;31.20;54.90;;;;;;7403679;19;19921;-73
2023/06/25 12:34:12;;;;;;;8.80;6.45;;;30.80;56.40;;;;;;7398451;19;19918;-73
2023/06/25 12:36:37;;;;;;;9.20;5.72;;;30.10;58.10;;;;;;7400571;19;19953;-73
2023/06/25 12:39:03;;;;;;;;;;;30.10;59.20;;;;;;7400644;19;20513;-75
2023/06/25 12:41:29;;;;;;;10.48;6.20;;;31.00;58.60;;;;;;7399659;19;19943;-73
2023/06/25 12:43:54;;;;;;;;;;;32.00;56.70;;;;;;7399477;19;19923;-74